createdAt,value
2018-09-03T00:00:22.811Z,42.90
2018-09-03T00:01:23.054Z,42.30
2018-09-03T00:02:23.292Z,43.40
2018-09-03T00:03:23.539Z,42.20
2018-09-03T00:04:23.777Z,41.20
2018-09-03T00:05:24.019Z,42.50
2018-09-03T00:06:24.260Z,42.80
2018-09-03T00:07:24.500Z,42.00
2018-09-03T00:08:24.743Z,42.30
2018-09-03T00:09:24.985Z,42.70
2018-09-03T00:10:25.226Z,43.10
2018-09-03T00:11:25.469Z,42.80
2018-09-03T00:12:25.711Z,43.10
2018-09-03T00:13:25.951Z,43.40
2018-09-03T00:14:26.200Z,43.60
2018-09-03T00:15:26.436Z,43.80
2018-09-03T00:16:26.678Z,43.80
2018-09-03T00:17:26.919Z,44.40
2018-09-03T00:18:27.160Z,43.90
2018-09-03T00:19:27.402Z,44.80
2018-09-03T00:20:27.644Z,45.00
2018-09-03T00:21:27.886Z,44.00
2018-09-03T00:22:28.128Z,44.30
2018-09-03T00:23:28.368Z,45.50
2018-09-03T00:24:28.610Z,45.80
2018-09-03T00:25:28.851Z,45.70
2018-09-03T00:26:29.094Z,46.10
2018-09-03T00:27:29.335Z,45.30
2018-09-03T00:28:29.579Z,46.90
2018-09-03T00:29:29.819Z,47.00
2018-09-03T00:30:30.063Z,47.10
2018-09-03T00:31:30.305Z,45.00
2018-09-03T00:32:30.547Z,46.20
2018-09-03T00:33:30.791Z,45.20
2018-09-03T00:34:31.034Z,45.90
2018-09-03T00:35:31.277Z,46.00
2018-09-03T00:36:31.518Z,48.00
2018-09-03T00:37:31.759Z,47.70
2018-09-03T00:38:32.001Z,48.30
2018-09-03T00:39:32.244Z,51.80
2018-09-03T00:40:32.489Z,51.00
2018-09-03T00:41:32.730Z,48.60
2018-09-03T00:42:32.969Z,51.50
2018-09-03T00:43:33.215Z,49.90
2018-09-03T00:44:33.450Z,51.30
2018-09-03T00:45:33.696Z,51.30
2018-09-03T00:46:33.939Z,50.90
2018-09-03T00:47:34.177Z,51.40
2018-09-03T00:48:34.420Z,52.30
2018-09-03T00:49:34.661Z,51.60
2018-09-03T00:50:34.903Z,52.80
2018-09-03T00:51:35.144Z,53.10
2018-09-03T00:52:35.385Z,51.90
2018-09-03T00:53:35.626Z,53.60
2018-09-03T00:54:35.868Z,51.90
2018-09-03T00:55:36.110Z,49.40
2018-09-03T00:56:36.352Z,52.20
2018-09-03T00:57:36.601Z,50.30
2018-09-03T00:58:36.838Z,50.40
2018-09-03T00:59:37.084Z,49.00
2018-09-03T01:00:37.314Z,48.60
2018-09-03T01:01:37.553Z,48.30
2018-09-03T01:02:37.795Z,47.30
2018-09-03T01:03:38.036Z,46.70
2018-09-03T01:04:38.281Z,46.10
2018-09-03T01:05:38.520Z,47.00
2018-09-03T01:06:38.762Z,46.20
2018-09-03T01:07:39.004Z,47.10
2018-09-03T01:08:39.246Z,46.20
2018-09-03T01:09:39.489Z,47.80
2018-09-03T01:10:39.730Z,47.90
2018-09-03T01:11:39.973Z,47.10
2018-09-03T01:12:40.217Z,46.50
2018-09-03T01:13:40.457Z,45.80
2018-09-03T01:14:40.702Z,46.40
2018-09-03T01:15:40.948Z,46.80
2018-09-03T01:16:41.187Z,47.20
2018-09-03T01:17:41.428Z,48.00
2018-09-03T01:18:41.671Z,47.10
2018-09-03T01:19:41.912Z,48.80
2018-09-03T01:20:42.155Z,46.20
2018-09-03T01:21:42.398Z,47.50
2018-09-03T01:22:42.639Z,47.20
2018-09-03T01:23:42.882Z,46.60
2018-09-03T01:24:43.124Z,46.70
2018-09-03T01:25:43.367Z,46.80
2018-09-03T01:26:43.610Z,47.50
2018-09-03T01:27:43.851Z,46.50
2018-09-03T01:28:44.094Z,47.30
2018-09-03T01:29:44.389Z,46.80
2018-09-03T01:30:44.578Z,46.20
2018-09-03T01:31:44.822Z,46.10
2018-09-03T01:32:45.065Z,45.80
2018-09-03T01:33:45.307Z,46.00
2018-09-03T01:34:45.549Z,46.40
2018-09-03T01:35:45.791Z,47.70
2018-09-03T01:36:46.034Z,46.50
2018-09-03T01:37:46.279Z,47.00
2018-09-03T01:38:46.519Z,46.10
2018-09-03T01:39:46.762Z,47.60
2018-09-03T01:40:47.004Z,45.90
2018-09-03T01:41:47.249Z,47.20
2018-09-03T01:42:47.491Z,44.90
2018-09-03T01:43:47.731Z,46.80
2018-09-03T01:44:47.974Z,46.00
2018-09-03T01:45:48.217Z,46.80
2018-09-03T01:46:48.460Z,47.20
2018-09-03T01:47:48.702Z,46.10
2018-09-03T01:48:48.944Z,47.60
2018-09-03T01:49:49.187Z,47.70
2018-09-03T01:50:49.429Z,49.50
2018-09-03T01:51:49.670Z,48.10
2018-09-03T01:52:49.914Z,48.60
2018-09-03T01:53:50.155Z,47.00
2018-09-03T01:54:50.397Z,48.90
2018-09-03T01:55:50.641Z,47.40
2018-09-03T01:56:50.882Z,49.00
2018-09-03T01:57:51.124Z,49.70
2018-09-03T01:58:51.367Z,47.80
2018-09-03T01:59:51.609Z,48.00
2018-09-03T02:00:51.854Z,48.20
2018-09-03T02:01:52.096Z,49.70
2018-09-03T02:02:52.337Z,49.10
2018-09-03T02:03:52.581Z,49.30
2018-09-03T02:04:52.823Z,49.10
2018-09-03T02:05:53.068Z,49.20
2018-09-03T02:06:53.310Z,49.10
2018-09-03T02:07:53.551Z,50.00
2018-09-03T02:08:53.793Z,47.80
2018-09-03T02:09:54.036Z,48.70
2018-09-03T02:10:54.278Z,48.10
2018-09-03T02:11:54.521Z,49.00
2018-09-03T02:12:54.764Z,49.00
2018-09-03T02:13:55.006Z,49.10
2018-09-03T02:14:55.248Z,49.60
2018-09-03T02:15:55.491Z,48.80
2018-09-03T02:16:55.734Z,48.00
2018-09-03T02:17:55.976Z,48.20
2018-09-03T02:18:56.221Z,47.30
2018-09-03T02:19:56.463Z,47.30
2018-09-03T02:20:56.707Z,49.70
2018-09-03T02:21:56.948Z,48.60
2018-09-03T02:22:57.190Z,48.00
2018-09-03T02:23:57.432Z,50.00
2018-09-03T02:24:57.677Z,49.00
2018-09-03T02:25:57.923Z,48.30
2018-09-03T02:26:58.159Z,49.00
2018-09-03T02:27:58.403Z,48.50
2018-09-03T02:28:58.645Z,49.90
2018-09-03T02:29:58.886Z,49.70
2018-09-03T02:30:59.122Z,50.60
2018-09-03T02:31:59.381Z,50.30
2018-09-03T02:32:59.623Z,50.90
2018-09-03T02:33:59.867Z,51.30
2018-09-03T02:35:00.110Z,51.50
2018-09-03T02:36:00.351Z,51.80
2018-09-03T02:37:00.593Z,50.40
2018-09-03T02:38:00.837Z,49.50
2018-09-03T02:39:01.080Z,50.30
2018-09-03T02:40:01.321Z,52.60
2018-09-03T02:41:01.564Z,49.80
2018-09-03T02:42:01.806Z,51.00
2018-09-03T02:43:02.049Z,49.00
2018-09-03T02:44:02.296Z,49.10
2018-09-03T02:45:02.534Z,50.90
2018-09-03T02:46:02.777Z,49.10
2018-09-03T02:47:03.021Z,50.10
2018-09-03T02:48:03.263Z,50.70
2018-09-03T02:49:03.505Z,51.20
2018-09-03T02:50:03.747Z,51.40
2018-09-03T02:51:03.988Z,49.10
2018-09-03T02:52:04.233Z,49.80
2018-09-03T02:53:04.475Z,50.10
2018-09-03T02:54:04.717Z,53.20
2018-09-03T02:55:04.961Z,50.90
2018-09-03T02:56:05.206Z,50.40
2018-09-03T02:57:05.447Z,50.80
2018-09-03T02:58:05.688Z,50.50
2018-09-03T02:59:05.933Z,49.60
2018-09-03T03:00:06.177Z,51.00
2018-09-03T03:01:06.416Z,50.00
2018-09-03T03:02:06.659Z,51.10
2018-09-03T03:03:06.902Z,49.30
2018-09-03T03:04:07.149Z,51.60
2018-09-03T03:05:07.388Z,48.40
2018-09-03T03:06:07.630Z,49.60
2018-09-03T03:07:07.872Z,49.70
2018-09-03T03:08:08.114Z,48.30
2018-09-03T03:09:08.357Z,50.00
2018-09-03T03:10:08.599Z,48.70
2018-09-03T03:11:08.842Z,50.10
2018-09-03T03:12:09.083Z,48.90
2018-09-03T03:13:09.325Z,48.80
2018-09-03T03:14:09.568Z,47.70
2018-09-03T03:15:09.812Z,48.40
2018-09-03T03:16:10.052Z,48.00
2018-09-03T03:17:10.293Z,49.60
2018-09-03T03:18:10.537Z,47.40
2018-09-03T03:19:10.777Z,48.50
2018-09-03T03:20:11.022Z,48.00
2018-09-03T03:21:11.262Z,48.30
2018-09-03T03:22:11.504Z,48.60
2018-09-03T03:23:11.747Z,47.10
2018-09-03T03:24:11.988Z,48.70
2018-09-03T03:25:12.235Z,46.80
2018-09-03T03:26:12.474Z,48.50
2018-09-03T03:27:12.719Z,47.10
2018-09-03T03:28:12.958Z,46.50
2018-09-03T03:29:13.201Z,45.30
2018-09-03T03:30:13.443Z,46.10
2018-09-03T03:31:13.685Z,46.90
2018-09-03T03:32:13.928Z,44.50
2018-09-03T03:33:14.173Z,45.20
2018-09-03T03:34:14.413Z,45.40
2018-09-03T03:35:14.655Z,46.20
2018-09-03T03:36:14.897Z,45.70
2018-09-03T03:37:15.140Z,46.20
2018-09-03T03:38:15.386Z,44.40
2018-09-03T03:39:15.623Z,45.60
2018-09-03T03:40:15.868Z,44.60
2018-09-03T03:41:16.110Z,45.70
2018-09-03T03:42:16.352Z,43.90
2018-09-03T03:43:16.594Z,43.40
2018-09-03T03:44:16.837Z,43.00
2018-09-03T03:45:17.077Z,41.90
2018-09-03T03:46:17.324Z,42.60
2018-09-03T03:47:17.563Z,43.50
2018-09-03T03:48:17.809Z,42.70
2018-09-03T03:49:18.049Z,44.00
2018-09-03T03:50:18.289Z,45.10
2018-09-03T03:51:18.532Z,44.70
2018-09-03T03:52:18.774Z,45.20
2018-09-03T03:53:19.016Z,45.60
2018-09-03T03:54:19.259Z,43.70
2018-09-03T03:55:19.504Z,44.60
2018-09-03T03:56:19.743Z,45.30
2018-09-03T03:57:19.986Z,45.60
2018-09-03T03:58:20.229Z,47.00
2018-09-03T03:59:20.471Z,45.90
2018-09-03T04:00:20.714Z,48.70
2018-09-03T04:01:20.955Z,53.00
2018-09-03T04:02:21.196Z,49.00
2018-09-03T04:03:21.440Z,47.80
2018-09-03T04:04:21.679Z,47.80
2018-09-03T04:05:21.923Z,49.00
2018-09-03T04:06:22.164Z,50.60
2018-09-03T04:07:22.406Z,50.90
2018-09-03T04:08:22.649Z,47.30
2018-09-03T04:09:22.892Z,48.60
2018-09-03T04:10:23.133Z,48.10
2018-09-03T04:11:23.375Z,46.20
2018-09-03T04:12:23.620Z,45.50
2018-09-03T04:13:23.859Z,46.10
2018-09-03T04:14:24.100Z,45.20
2018-09-03T04:15:24.344Z,45.30
2018-09-03T04:16:24.585Z,45.80
2018-09-03T04:17:24.827Z,43.70
2018-09-03T04:18:25.069Z,47.50
2018-09-03T04:19:25.310Z,47.40
2018-09-03T04:20:25.552Z,45.50
2018-09-03T04:21:25.794Z,45.10
2018-09-03T04:22:26.036Z,44.80
2018-09-03T04:23:26.512Z,45.20
2018-09-03T04:24:26.521Z,46.00
2018-09-03T04:25:26.761Z,48.20
2018-09-03T04:26:27.004Z,47.00
2018-09-03T04:27:27.247Z,45.00
2018-09-03T04:28:27.489Z,45.60
2018-09-03T04:29:27.731Z,49.60
2018-09-03T04:30:27.972Z,48.00
2018-09-03T04:31:28.216Z,46.40
2018-09-03T04:32:28.459Z,45.90
2018-09-03T04:33:28.698Z,44.90
2018-09-03T04:34:28.940Z,44.80
2018-09-03T04:35:29.182Z,45.90
2018-09-03T04:36:29.425Z,45.70
2018-09-03T04:37:29.666Z,43.20
2018-09-03T04:38:29.908Z,44.20
2018-09-03T04:39:30.150Z,44.70
2018-09-03T04:40:30.393Z,45.20
2018-09-03T04:41:30.634Z,46.00
2018-09-03T04:42:30.877Z,46.50
2018-09-03T04:43:31.120Z,47.60
2018-09-03T04:44:31.361Z,47.40
2018-09-03T04:45:31.603Z,47.80
2018-09-03T04:46:31.845Z,47.80
2018-09-03T04:47:32.088Z,49.30
2018-09-03T04:48:32.331Z,49.20
2018-09-03T04:49:32.574Z,47.30
2018-09-03T04:50:32.815Z,48.60
2018-09-03T04:51:33.062Z,47.00
2018-09-03T04:52:33.302Z,47.70
2018-09-03T04:53:33.543Z,50.10
2018-09-03T04:54:33.799Z,50.10
2018-09-03T04:55:34.029Z,47.80
2018-09-03T04:56:34.272Z,47.00
2018-09-03T04:57:34.514Z,47.20
2018-09-03T04:58:34.756Z,49.00
2018-09-03T04:59:35.003Z,48.60
2018-09-03T05:00:35.263Z,48.60
2018-09-03T05:01:35.504Z,48.70
2018-09-03T05:02:35.747Z,49.10
2018-09-03T05:03:35.988Z,49.70
2018-09-03T05:04:36.230Z,49.70
2018-09-03T05:05:36.472Z,49.30
2018-09-03T05:06:36.747Z,49.20
2018-09-03T05:07:36.960Z,49.10
2018-09-03T05:08:37.200Z,49.30
2018-09-03T05:09:37.443Z,48.80
2018-09-03T05:10:37.684Z,50.00
2018-09-03T05:11:37.950Z,50.50
2018-09-03T05:12:38.168Z,49.10
2018-09-03T05:13:38.411Z,47.20
2018-09-03T05:14:38.652Z,48.20
2018-09-03T05:15:38.896Z,45.60
2018-09-03T05:16:39.138Z,45.20
2018-09-03T05:17:39.380Z,44.30
2018-09-03T05:18:39.622Z,44.90
2018-09-03T05:19:39.861Z,45.40
2018-09-03T05:20:40.099Z,45.00
2018-09-03T05:21:40.342Z,46.50
2018-09-03T05:22:40.585Z,46.00
2018-09-03T05:23:40.821Z,45.50
2018-09-03T05:24:41.068Z,44.70
2018-09-03T05:25:41.310Z,43.40
2018-09-03T05:26:41.553Z,44.70
2018-09-03T05:27:41.796Z,47.40
2018-09-03T05:28:42.037Z,70.60
2018-09-03T05:29:42.280Z,44.70
2018-09-03T05:30:42.522Z,43.80
2018-09-03T05:31:42.764Z,44.30
2018-09-03T05:32:43.005Z,45.30
2018-09-03T05:33:43.248Z,44.40
2018-09-03T05:34:43.490Z,43.10
2018-09-03T05:35:43.732Z,43.30
2018-09-03T05:36:43.983Z,43.80
2018-09-03T05:37:44.236Z,63.60
2018-09-03T05:38:44.494Z,66.90
2018-09-03T05:39:44.747Z,56.00
2018-09-03T05:40:44.988Z,54.20
2018-09-03T05:41:45.246Z,56.30
2018-09-03T05:42:45.490Z,52.20
2018-09-03T05:43:45.800Z,50.30
2018-09-03T05:44:46.004Z,50.70
2018-09-03T05:45:46.248Z,49.60
2018-09-03T05:46:46.502Z,50.40
2018-09-03T05:47:46.752Z,61.60
2018-09-03T05:48:47.006Z,58.90
2018-09-03T05:49:47.257Z,48.70
2018-09-03T05:50:47.571Z,48.80
2018-09-03T05:51:47.749Z,49.20
2018-09-03T05:52:48.006Z,49.70
2018-09-03T05:53:48.252Z,55.90
2018-09-03T05:54:48.512Z,51.50
2018-09-03T05:55:48.757Z,47.40
2018-09-03T05:56:49.033Z,44.10
2018-09-03T05:57:49.284Z,43.30
2018-09-03T05:58:49.544Z,45.10
2018-09-03T05:59:49.799Z,42.60
2018-09-03T06:00:50.041Z,41.20
2018-09-03T06:01:50.375Z,43.10
2018-09-03T06:02:50.623Z,43.70
2018-09-03T06:03:50.884Z,43.60
2018-09-03T06:04:51.190Z,43.90
2018-09-03T06:05:51.395Z,43.90
2018-09-03T06:06:51.634Z,43.80
2018-09-03T06:07:51.887Z,45.40
2018-09-03T06:08:52.155Z,44.60
2018-09-03T06:09:52.388Z,45.40
2018-09-03T06:10:52.637Z,43.30
2018-09-03T06:11:52.880Z,42.30
2018-09-03T06:12:53.122Z,47.40
2018-09-03T06:13:53.364Z,46.50
2018-09-03T06:14:53.608Z,68.40
2018-09-03T06:15:53.865Z,63.90
2018-09-03T06:16:54.129Z,45.50
2018-09-03T06:17:54.483Z,42.70
2018-09-03T06:18:54.645Z,41.70
2018-09-03T06:19:54.890Z,40.70
2018-09-03T06:20:55.147Z,40.20
2018-09-03T06:21:55.546Z,40.00
2018-09-03T06:22:55.818Z,39.80
2018-09-03T06:23:56.079Z,39.60
2018-09-03T06:24:56.329Z,41.60
2018-09-03T06:25:56.580Z,42.00
2018-09-03T06:26:56.817Z,39.30
2018-09-03T06:27:57.086Z,38.50
2018-09-03T06:28:57.346Z,37.60
2018-09-03T06:29:57.595Z,37.60
2018-09-03T06:30:57.838Z,37.60
2018-09-03T06:31:58.081Z,36.70
2018-09-03T06:32:58.341Z,37.80
2018-09-03T06:33:58.570Z,37.90
2018-09-03T06:34:58.814Z,38.30
2018-09-03T06:35:59.104Z,39.50
2018-09-03T06:36:59.300Z,40.30
2018-09-03T06:37:59.545Z,39.90
2018-09-03T06:38:59.785Z,39.80
2018-09-03T06:40:00.029Z,37.40
2018-09-03T06:41:00.272Z,35.40
2018-09-03T06:42:00.514Z,35.60
2018-09-03T06:43:00.758Z,34.30
2018-09-03T06:44:01.002Z,35.90
2018-09-03T06:45:01.250Z,36.90
2018-09-03T06:46:01.491Z,35.80
2018-09-03T06:47:01.734Z,35.60
2018-09-03T06:48:01.979Z,36.00
2018-09-03T06:49:02.221Z,36.20
2018-09-03T06:50:02.466Z,36.70
2018-09-03T06:51:02.708Z,34.60
2018-09-03T06:52:02.951Z,34.30
2018-09-03T06:53:03.195Z,33.90
2018-09-03T06:54:03.437Z,35.90
2018-09-03T06:55:03.681Z,36.60
2018-09-03T06:56:03.925Z,34.40
2018-09-03T06:57:04.173Z,36.20
2018-09-03T06:58:04.412Z,34.50
2018-09-03T06:59:04.658Z,35.50
2018-09-03T07:00:04.898Z,37.00
2018-09-03T07:01:05.143Z,35.00
2018-09-03T07:02:05.384Z,35.30
2018-09-03T07:03:05.629Z,36.80
2018-09-03T07:04:05.873Z,35.30
2018-09-03T07:05:06.117Z,35.20
2018-09-03T07:06:06.361Z,34.50
2018-09-03T07:07:06.605Z,34.70
2018-09-03T07:08:06.848Z,34.30
2018-09-03T07:09:07.093Z,34.80
2018-09-03T07:10:07.338Z,33.60
2018-09-03T07:11:07.583Z,33.00
2018-09-03T07:12:07.824Z,33.70
2018-09-03T07:13:08.069Z,33.90
2018-09-03T07:14:08.314Z,33.60
2018-09-03T07:15:08.557Z,34.10
2018-09-03T07:16:08.801Z,32.60
2018-09-03T07:17:09.047Z,32.30
2018-09-03T07:18:09.289Z,33.30
2018-09-03T07:19:09.533Z,33.00
2018-09-03T07:20:09.777Z,33.30
2018-09-03T07:21:10.022Z,32.60
2018-09-03T07:22:10.265Z,32.10
2018-09-03T07:23:10.508Z,32.60
2018-09-03T07:24:10.753Z,31.60
2018-09-03T07:25:10.997Z,32.80
2018-09-03T07:26:11.240Z,31.40
2018-09-03T07:27:11.484Z,32.30
2018-09-03T07:28:11.728Z,31.10
2018-09-03T07:29:11.972Z,31.60
2018-09-03T07:30:12.217Z,32.60
2018-09-03T07:31:12.460Z,32.10
2018-09-03T07:32:12.707Z,31.70
2018-09-03T07:33:12.952Z,31.80
2018-09-03T07:34:13.196Z,33.20
2018-09-03T07:35:13.454Z,32.90
2018-09-03T07:36:13.683Z,32.60
2018-09-03T07:37:13.928Z,34.20
2018-09-03T07:38:14.173Z,32.90
2018-09-03T07:39:14.415Z,30.90
2018-09-03T07:40:14.660Z,32.20
2018-09-03T07:41:14.906Z,33.50
2018-09-03T07:42:15.149Z,34.10
2018-09-03T07:43:15.392Z,34.90
2018-09-03T07:44:15.700Z,33.80
2018-09-03T07:45:15.879Z,34.00
2018-09-03T07:46:16.124Z,35.30
2018-09-03T07:47:16.367Z,34.50
2018-09-03T07:48:16.641Z,33.50
2018-09-03T07:49:16.854Z,35.10
2018-09-03T07:50:17.098Z,33.30
2018-09-03T07:51:17.344Z,34.20
2018-09-03T07:52:17.586Z,34.70
2018-09-03T07:53:17.829Z,34.60
2018-09-03T07:54:18.072Z,34.40
2018-09-03T07:55:18.316Z,35.60
2018-09-03T07:56:18.558Z,35.30
2018-09-03T07:57:18.802Z,38.70
2018-09-03T07:58:19.045Z,37.00
2018-09-03T07:59:19.289Z,38.30
2018-09-03T08:00:19.532Z,39.00
2018-09-03T08:01:19.804Z,38.00
2018-09-03T08:02:20.020Z,35.90
2018-09-03T08:03:20.260Z,37.30
2018-09-03T08:04:20.507Z,38.80
2018-09-03T08:05:20.748Z,38.60
2018-09-03T08:06:20.991Z,38.10
2018-09-03T08:07:21.254Z,38.00
2018-09-03T08:08:21.480Z,38.90
2018-09-03T08:09:21.722Z,40.80
2018-09-03T08:10:21.967Z,40.40
2018-09-03T08:11:22.211Z,40.20
2018-09-03T08:12:22.450Z,40.90
2018-09-03T08:13:22.696Z,41.10
2018-09-03T08:14:22.937Z,39.60
2018-09-03T08:15:23.179Z,41.10
2018-09-03T08:16:23.423Z,42.00
2018-09-03T08:17:23.666Z,38.90
2018-09-03T08:18:23.910Z,40.90
2018-09-03T08:19:24.160Z,40.60
2018-09-03T08:20:24.400Z,39.70
2018-09-03T08:21:24.643Z,38.40
2018-09-03T08:22:24.887Z,39.50
2018-09-03T08:23:25.131Z,38.80
2018-09-03T08:24:25.374Z,37.70
2018-09-03T08:25:25.617Z,39.20
2018-09-03T08:26:25.863Z,37.40
2018-09-03T08:27:26.106Z,36.80
2018-09-03T08:28:26.348Z,40.00
2018-09-03T08:29:26.592Z,39.40
2018-09-03T08:30:26.838Z,41.10
2018-09-03T08:31:27.081Z,41.10
2018-09-03T08:32:27.323Z,41.00
2018-09-03T08:33:27.569Z,40.30
2018-09-03T08:34:27.812Z,41.10
2018-09-03T08:35:28.065Z,42.70
2018-09-03T08:36:28.298Z,40.80
2018-09-03T08:37:28.548Z,41.50
2018-09-03T08:38:28.787Z,41.00
2018-09-03T08:39:29.031Z,40.90
2018-09-03T08:40:29.275Z,41.40
2018-09-03T08:41:29.517Z,41.20
2018-09-03T08:42:29.766Z,39.70
2018-09-03T08:43:30.005Z,39.80
2018-09-03T08:44:30.249Z,40.30
2018-09-03T08:45:30.494Z,39.10
2018-09-03T08:46:30.734Z,39.20
2018-09-03T08:47:30.982Z,40.10
2018-09-03T08:48:31.223Z,38.30
2018-09-03T08:49:31.466Z,38.60
2018-09-03T08:50:31.710Z,39.50
2018-09-03T08:51:31.954Z,39.80
2018-09-03T08:52:32.199Z,39.90
2018-09-03T08:53:32.445Z,40.20
2018-09-03T08:54:32.688Z,37.60
2018-09-03T08:55:32.933Z,39.70
2018-09-03T08:56:33.175Z,39.70
2018-09-03T08:57:33.420Z,38.00
2018-09-03T08:58:33.664Z,38.20
2018-09-03T08:59:33.908Z,36.70
2018-09-03T09:00:34.154Z,37.40
2018-09-03T09:01:34.396Z,37.00
2018-09-03T09:02:34.643Z,35.50
2018-09-03T09:03:34.884Z,35.20
2018-09-03T09:04:35.129Z,35.00
2018-09-03T09:05:35.372Z,34.30
2018-09-03T09:06:35.620Z,33.30
2018-09-03T09:07:35.862Z,34.70
2018-09-03T09:08:36.110Z,33.00
2018-09-03T09:09:36.351Z,32.20
2018-09-03T09:10:36.595Z,32.00
2018-09-03T09:11:36.901Z,32.30
2018-09-03T09:12:37.085Z,30.90
2018-09-03T09:13:37.329Z,31.00
2018-09-03T09:14:37.572Z,31.20
2018-09-03T09:15:37.818Z,29.60
2018-09-03T09:16:38.062Z,29.60
2018-09-03T09:17:38.350Z,31.90
2018-09-03T09:18:38.556Z,31.50
2018-09-03T09:19:38.797Z,29.50
2018-09-03T09:20:39.042Z,29.30
2018-09-03T09:21:39.291Z,27.10
2018-09-03T09:22:39.533Z,25.60
2018-09-03T09:23:39.775Z,23.40
2018-09-03T09:24:40.019Z,22.20
2018-09-03T09:25:40.263Z,21.30
2018-09-03T09:26:40.508Z,20.80
2018-09-03T09:27:40.752Z,20.80
2018-09-03T09:28:40.998Z,21.50
2018-09-03T09:29:41.241Z,20.60
2018-09-03T09:30:41.485Z,21.00
2018-09-03T09:31:41.730Z,20.30
2018-09-03T09:32:41.973Z,20.50
2018-09-03T09:33:42.217Z,21.10
2018-09-03T09:34:42.461Z,20.60
2018-09-03T09:35:42.740Z,18.20
2018-09-03T09:36:42.959Z,17.70
2018-09-03T09:37:43.192Z,17.90
2018-09-03T09:38:43.441Z,19.20
2018-09-03T09:39:43.678Z,18.20
2018-09-03T09:40:43.924Z,17.00
2018-09-03T09:41:44.168Z,18.80
2018-09-03T09:42:44.419Z,18.90
2018-09-03T09:43:44.657Z,18.50
2018-09-03T09:44:44.904Z,18.70
2018-09-03T09:45:45.145Z,20.20
2018-09-03T09:46:45.388Z,20.30
2018-09-03T09:47:45.632Z,21.70
2018-09-03T09:48:45.875Z,21.60
2018-09-03T09:49:46.120Z,22.50
2018-09-03T09:50:46.365Z,21.90
2018-09-03T09:51:46.605Z,21.70
2018-09-03T09:52:46.850Z,23.30
2018-09-03T09:53:47.095Z,21.40
2018-09-03T09:54:47.361Z,21.90
2018-09-03T09:55:47.582Z,21.70
2018-09-03T09:56:47.824Z,20.40
2018-09-03T09:57:48.070Z,20.70
2018-09-03T09:58:48.314Z,20.90
2018-09-03T09:59:48.555Z,21.40
2018-09-03T10:00:48.803Z,22.20
2018-09-03T10:01:49.043Z,21.20
2018-09-03T10:02:49.287Z,21.70
2018-09-03T10:03:49.531Z,21.20
2018-09-03T10:04:49.775Z,21.50
2018-09-03T10:05:50.017Z,22.00
2018-09-03T10:06:50.262Z,22.30
2018-09-03T10:07:50.507Z,21.00
2018-09-03T10:08:50.749Z,20.60
2018-09-03T10:09:50.992Z,21.80
2018-09-03T10:10:51.236Z,23.00
2018-09-03T10:11:51.483Z,22.50
2018-09-03T10:12:51.723Z,22.70
2018-09-03T10:13:51.966Z,22.10
2018-09-03T10:14:52.213Z,21.50
2018-09-03T10:15:52.453Z,22.80
2018-09-03T10:16:52.700Z,22.40
2018-09-03T10:17:52.943Z,22.60
2018-09-03T10:18:53.186Z,22.70
2018-09-03T10:19:53.430Z,23.20
2018-09-03T10:20:53.721Z,22.40
2018-09-03T10:21:53.918Z,22.60
2018-09-03T10:22:54.162Z,22.80
2018-09-03T10:23:54.405Z,22.50
2018-09-03T10:24:54.654Z,22.80
2018-09-03T10:25:54.892Z,22.00
2018-09-03T10:26:55.137Z,22.60
2018-09-03T10:27:55.381Z,20.10
2018-09-03T10:28:55.625Z,20.90
2018-09-03T10:29:55.868Z,21.80
2018-09-03T10:30:56.115Z,22.20
2018-09-03T10:31:56.406Z,21.20
2018-09-03T10:32:56.602Z,21.80
2018-09-03T10:33:56.846Z,22.90
2018-09-03T10:34:57.091Z,22.30
2018-09-03T10:35:57.335Z,21.70
2018-09-03T10:36:57.580Z,21.10
2018-09-03T10:37:57.823Z,22.40
2018-09-03T10:38:58.067Z,23.00
2018-09-03T10:39:58.321Z,21.70
2018-09-03T10:40:58.557Z,21.40
2018-09-03T10:41:58.805Z,22.10
2018-09-03T10:42:59.045Z,21.70
2018-09-03T10:43:59.289Z,21.40
2018-09-03T10:44:59.534Z,21.40
2018-09-03T10:45:59.779Z,20.80
2018-09-03T10:47:00.034Z,20.00
2018-09-03T10:48:00.266Z,19.70
2018-09-03T10:49:00.518Z,20.70
2018-09-03T10:50:00.758Z,21.40
2018-09-03T10:51:01.000Z,21.30
2018-09-03T10:52:01.244Z,21.20
2018-09-03T10:53:01.489Z,20.40
2018-09-03T10:54:01.734Z,20.90
2018-09-03T10:55:01.977Z,21.50
2018-09-03T10:56:02.275Z,22.30
2018-09-03T10:57:02.465Z,21.30
2018-09-03T10:58:02.711Z,22.50
2018-09-03T10:59:02.956Z,22.10
2018-09-03T11:00:03.198Z,23.30
2018-09-03T11:01:03.445Z,22.50
2018-09-03T11:02:03.689Z,20.90
2018-09-03T11:03:03.932Z,21.40
2018-09-03T11:04:04.181Z,20.70
2018-09-03T11:05:04.428Z,20.20
2018-09-03T11:06:04.667Z,21.50
2018-09-03T11:07:04.910Z,20.80
2018-09-03T11:08:05.155Z,21.90
2018-09-03T11:09:05.398Z,21.00
2018-09-03T11:10:05.643Z,21.90
2018-09-03T11:11:05.888Z,22.40
2018-09-03T11:12:06.133Z,22.90
2018-09-03T11:13:06.389Z,22.80
2018-09-03T11:14:06.654Z,22.40
2018-09-03T11:15:06.864Z,22.20
2018-09-03T11:16:07.116Z,22.40
2018-09-03T11:17:07.354Z,23.20
2018-09-03T11:18:07.599Z,23.40
2018-09-03T11:19:07.843Z,21.60
2018-09-03T11:20:08.144Z,23.10
2018-09-03T11:21:08.394Z,21.60
2018-09-03T11:22:08.578Z,22.00
2018-09-03T11:23:08.825Z,21.30
2018-09-03T11:24:09.067Z,22.10
2018-09-03T11:25:09.356Z,21.30
2018-09-03T11:26:09.555Z,22.30
2018-09-03T11:27:09.813Z,20.70
2018-09-03T11:28:10.046Z,21.90
2018-09-03T11:29:10.290Z,22.30
2018-09-03T11:30:10.534Z,22.10
2018-09-03T11:31:10.779Z,21.70
2018-09-03T11:32:11.023Z,22.20
2018-09-03T11:33:11.269Z,21.70
2018-09-03T11:34:11.513Z,21.60
2018-09-03T11:35:11.772Z,22.60
2018-09-03T11:36:12.005Z,21.90
2018-09-03T11:37:12.248Z,23.10
2018-09-03T11:38:12.492Z,23.50
2018-09-03T11:39:12.736Z,21.70
2018-09-03T11:40:12.981Z,22.90
2018-09-03T11:41:13.225Z,24.40
2018-09-03T11:42:13.471Z,23.60
2018-09-03T11:43:13.718Z,23.60
2018-09-03T11:44:13.963Z,22.10
2018-09-03T11:45:14.208Z,22.90
2018-09-03T11:46:14.452Z,23.80
2018-09-03T11:47:14.779Z,24.20
2018-09-03T11:48:14.941Z,24.30
2018-09-03T11:49:15.185Z,23.70
2018-09-03T11:50:15.444Z,24.00
2018-09-03T11:51:15.689Z,24.00
2018-09-03T11:52:15.933Z,24.30
2018-09-03T11:53:16.177Z,25.10
2018-09-03T11:54:16.430Z,24.90
2018-09-03T11:55:16.667Z,26.00
2018-09-03T11:56:16.912Z,26.40
2018-09-03T11:57:17.156Z,26.20
2018-09-03T11:58:17.405Z,26.00
2018-09-03T11:59:17.646Z,25.50
2018-09-03T12:00:17.894Z,26.70
2018-09-03T12:01:18.136Z,27.60
2018-09-03T12:02:18.379Z,27.60
2018-09-03T12:03:18.623Z,26.50
2018-09-03T12:04:18.866Z,26.50
2018-09-03T12:05:19.109Z,26.80
2018-09-03T12:06:19.354Z,26.90
2018-09-03T12:07:19.597Z,27.00
2018-09-03T12:08:19.843Z,27.40
2018-09-03T12:09:20.086Z,27.70
2018-09-03T12:10:20.329Z,28.20
2018-09-03T12:11:20.573Z,29.40
2018-09-03T12:12:20.818Z,29.50
2018-09-03T12:13:21.062Z,29.30
2018-09-03T12:14:21.309Z,29.40
2018-09-03T12:15:21.554Z,29.90
2018-09-03T12:16:21.799Z,29.50
2018-09-03T12:17:22.044Z,29.40
2018-09-03T12:18:22.285Z,30.10
2018-09-03T12:19:22.531Z,32.00
2018-09-03T12:20:22.775Z,32.00
2018-09-03T12:21:23.015Z,31.30
2018-09-03T12:22:23.259Z,32.50
2018-09-03T12:23:23.503Z,32.20
2018-09-03T12:24:23.748Z,33.10
2018-09-03T12:25:23.990Z,33.20
2018-09-03T12:26:24.235Z,34.50
2018-09-03T12:27:24.480Z,34.10
2018-09-03T12:28:24.723Z,35.60
2018-09-03T12:29:24.964Z,36.30
2018-09-03T12:30:25.209Z,35.60
2018-09-03T12:31:25.471Z,35.30
2018-09-03T12:32:25.700Z,37.00
2018-09-03T12:33:25.944Z,38.30
2018-09-03T12:34:26.188Z,38.20
2018-09-03T12:35:26.429Z,37.30
2018-09-03T12:36:26.673Z,39.10
2018-09-03T12:37:26.915Z,38.00
2018-09-03T12:38:27.160Z,39.50
2018-09-03T12:39:27.403Z,40.00
2018-09-03T12:40:27.673Z,39.20
2018-09-03T12:41:27.953Z,40.60
2018-09-03T12:42:28.211Z,39.50
2018-09-03T12:43:28.456Z,39.10
2018-09-03T12:44:28.699Z,38.00
2018-09-03T12:45:28.947Z,41.20
2018-09-03T12:46:29.211Z,39.00
2018-09-03T12:47:29.430Z,38.10
2018-09-03T12:48:29.673Z,38.80
2018-09-03T12:49:29.916Z,41.10
2018-09-03T12:50:30.160Z,39.70
2018-09-03T12:51:30.403Z,38.80
2018-09-03T12:52:30.648Z,39.30
2018-09-03T12:53:30.890Z,39.60
2018-09-03T12:54:31.134Z,42.80
2018-09-03T12:55:31.378Z,40.90